createdAt,value
2023-05-11T00:03:56.822Z,13.00
2023-05-11T00:08:58.716Z,12.90
2023-05-11T00:14:00.713Z,12.70
2023-05-11T00:19:02.570Z,12.70
2023-05-11T00:24:04.442Z,12.80
2023-05-11T00:29:06.361Z,12.80
2023-05-11T00:34:08.136Z,12.80
2023-05-11T00:39:11.930Z,12.70
2023-05-11T00:44:13.790Z,12.60
2023-05-11T00:49:17.479Z,12.50
2023-05-11T00:54:19.985Z,12.50
2023-05-11T00:59:21.766Z,12.50
2023-05-11T01:04:23.736Z,12.30
2023-05-11T01:09:58.226Z,12.50
2023-05-11T01:15:39.990Z,12.50
2023-05-11T01:20:44.117Z,12.30
2023-05-11T01:26:15.247Z,12.40
2023-05-11T01:31:19.528Z,12.50
2023-05-11T01:36:29.401Z,12.50
2023-05-11T01:41:34.671Z,12.30
2023-05-11T01:46:36.810Z,12.30
2023-05-11T01:51:39.635Z,12.40
2023-05-11T01:56:44.355Z,12.30
2023-05-11T02:01:47.114Z,12.40
2023-05-11T02:06:51.098Z,12.40
2023-05-11T02:11:56.163Z,12.20
2023-05-11T02:16:58.669Z,12.30
2023-05-11T02:22:01.641Z,12.40
2023-05-11T02:27:03.675Z,12.30
2023-05-11T02:32:12.295Z,12.40
2023-05-11T02:37:18.437Z,12.30
2023-05-11T02:42:23.424Z,12.40
2023-05-11T02:47:30.450Z,12.30
2023-05-11T02:52:33.885Z,12.40
2023-05-11T02:57:35.899Z,12.40
2023-05-11T03:02:37.886Z,12.30
2023-05-11T03:07:39.738Z,12.30
2023-05-11T03:12:41.585Z,12.30
2023-05-11T03:17:44.014Z,12.20
2023-05-11T03:22:46.643Z,12.30
2023-05-11T03:27:50.596Z,12.20
2023-05-11T03:32:52.973Z,12.20
2023-05-11T03:37:57.207Z,12.20
2023-05-11T03:43:02.128Z,12.20
2023-05-11T03:48:05.761Z,12.10
2023-05-11T03:53:07.790Z,12.20
2023-05-11T03:58:10.400Z,12.20
2023-05-11T04:03:12.596Z,12.20
2023-05-11T04:08:14.872Z,12.20
2023-05-11T04:13:16.682Z,12.00
2023-05-11T04:18:18.475Z,11.90
2023-05-11T04:23:20.332Z,11.70
2023-05-11T04:28:27.573Z,11.50
2023-05-11T04:33:29.354Z,11.70
2023-05-11T04:38:31.137Z,11.70
2023-05-11T04:43:32.953Z,11.60
2023-05-11T04:48:34.711Z,11.70
2023-05-11T04:53:36.505Z,11.60
2023-05-11T04:58:38.332Z,11.40
2023-05-11T05:03:40.415Z,11.40
2023-05-11T05:08:42.329Z,11.50
2023-05-11T05:13:44.337Z,11.50
2023-05-11T05:18:46.520Z,11.60
2023-05-11T05:23:48.395Z,11.50
2023-05-11T05:28:50.170Z,11.50
2023-05-11T05:33:51.962Z,11.60
2023-05-11T05:38:53.791Z,11.50
2023-05-11T05:43:55.626Z,11.60
2023-05-11T05:48:57.461Z,11.90
2023-05-11T05:53:59.323Z,11.90
2023-05-11T05:59:01.544Z,11.80
2023-05-11T06:04:03.852Z,11.80
2023-05-11T06:09:06.074Z,11.80
2023-05-11T06:14:07.871Z,11.90
2023-05-11T06:19:09.663Z,12.00
2023-05-11T06:24:11.705Z,12.10
2023-05-11T06:29:13.493Z,12.00
2023-05-11T06:34:15.413Z,12.10
2023-05-11T06:39:17.174Z,12.00
2023-05-11T06:44:18.975Z,11.90
2023-05-11T06:49:21.037Z,12.20
2023-05-11T06:54:22.942Z,12.20
2023-05-11T06:59:25.114Z,12.40
2023-05-11T07:04:27.141Z,12.60
2023-05-11T07:09:29.064Z,12.60
2023-05-11T07:14:30.839Z,12.60
2023-05-11T07:19:33.005Z,12.70
2023-05-11T07:24:34.859Z,12.70
2023-05-11T07:29:36.987Z,12.70
2023-05-11T07:34:41.124Z,12.90
2023-05-11T07:39:42.937Z,12.90
2023-05-11T07:44:44.854Z,13.10
2023-05-11T07:49:47.648Z,13.10
2023-05-11T07:54:49.431Z,13.00
2023-05-11T07:59:51.329Z,13.10
2023-05-11T08:04:53.105Z,13.20
2023-05-11T08:09:54.905Z,13.20
2023-05-11T08:14:56.691Z,13.20
2023-05-11T08:19:58.702Z,13.40
2023-05-11T08:25:00.785Z,13.70
2023-05-11T08:30:03.165Z,14.00
2023-05-11T08:35:05.733Z,13.50
2023-05-11T08:40:09.840Z,13.80
2023-05-11T08:45:12.794Z,14.20
2023-05-11T08:50:14.902Z,14.30
2023-05-11T08:55:17.553Z,14.70
2023-05-11T09:00:20.773Z,15.00
2023-05-11T09:05:23.885Z,15.00
2023-05-11T09:10:25.930Z,15.10
2023-05-11T09:15:27.675Z,15.30
2023-05-11T09:20:31.909Z,15.70
2023-05-11T09:25:35.044Z,15.20
2023-05-11T09:30:37.015Z,15.50
2023-05-11T09:35:38.775Z,15.90
2023-05-11T09:40:49.526Z,15.70
2023-05-11T09:45:56.438Z,16.20
2023-05-11T09:51:05.325Z,16.10
2023-05-11T09:56:07.559Z,15.80
2023-05-11T10:01:09.400Z,16.40
2023-05-11T10:06:11.289Z,16.50
2023-05-11T10:11:13.234Z,16.40
2023-05-11T10:16:16.744Z,16.50
2023-05-11T10:21:18.845Z,16.90
2023-05-11T10:26:20.943Z,16.50
2023-05-11T10:31:24.317Z,17.00
2023-05-11T10:36:26.996Z,17.60
2023-05-11T10:41:47.956Z,17.80
2023-05-11T10:46:52.503Z,17.20
2023-05-11T10:52:06.226Z,16.70
2023-05-11T10:57:18.136Z,16.70
2023-05-11T11:02:20.321Z,17.20
2023-05-11T11:07:22.110Z,17.50
2023-05-11T11:12:26.998Z,17.00
2023-05-11T11:17:32.228Z,16.70
2023-05-11T11:22:41.650Z,16.70
2023-05-11T11:27:49.655Z,16.60
2023-05-11T11:32:54.033Z,16.90
2023-05-11T11:38:03.181Z,17.70
2023-05-11T11:43:12.748Z,17.90
2023-05-11T11:48:16.251Z,18.20
2023-05-11T11:53:37.097Z,18.70
2023-05-11T11:58:41.967Z,19.50
2023-05-11T12:03:46.955Z,20.10
2023-05-11T12:08:49.111Z,20.40
2023-05-11T12:13:51.316Z,19.40
2023-05-11T12:18:55.285Z,18.40
2023-05-11T12:24:02.013Z,18.20
2023-05-11T12:29:14.881Z,17.60
2023-05-11T12:34:17.876Z,18.90
2023-05-11T12:39:25.037Z,20.50
2023-05-11T12:44:27.151Z,19.30
2023-05-11T12:49:29.311Z,19.10
2023-05-11T12:54:32.472Z,19.50
2023-05-11T12:59:39.741Z,19.90
2023-05-11T13:04:43.107Z,20.10
2023-05-11T13:09:59.404Z,21.30
2023-05-11T13:15:13.293Z,20.60
2023-05-11T13:20:27.202Z,20.90
2023-05-11T13:25:29.150Z,21.70
2023-05-11T13:30:35.335Z,21.00
2023-05-11T13:35:44.178Z,20.00
2023-05-11T13:40:46.330Z,19.50
2023-05-11T13:45:48.129Z,19.10
2023-05-11T13:50:49.966Z,19.10
2023-05-11T13:55:52.260Z,19.70
2023-05-11T14:01:07.205Z,19.70
2023-05-11T14:06:10.384Z,19.00
2023-05-11T14:11:12.174Z,18.70
2023-05-11T14:16:14.040Z,18.70
2023-05-11T14:21:17.221Z,18.50
2023-05-11T14:26:19.063Z,18.40
2023-05-11T14:31:20.838Z,18.40
2023-05-11T14:36:22.798Z,18.40
2023-05-11T14:41:24.740Z,18.40
2023-05-11T14:46:26.983Z,18.30
2023-05-11T14:51:28.951Z,18.20
2023-05-11T14:56:30.955Z,18.00
2023-05-11T15:01:32.880Z,17.80
2023-05-11T15:06:34.877Z,17.80
2023-05-11T15:11:39.714Z,17.50
2023-05-11T15:16:41.571Z,16.70
2023-05-11T15:21:43.498Z,16.10
2023-05-11T15:26:45.312Z,15.70
2023-05-11T15:31:47.130Z,15.80
2023-05-11T15:36:49.861Z,15.80
2023-05-11T15:41:51.647Z,15.90
2023-05-11T15:46:54.172Z,15.40
2023-05-11T15:51:56.000Z,15.30
2023-05-11T15:56:58.795Z,15.10
2023-05-11T16:02:00.787Z,15.00
2023-05-11T16:07:02.597Z,15.10
2023-05-11T16:12:04.705Z,15.30
2023-05-11T16:17:07.729Z,15.20
2023-05-11T16:22:09.565Z,15.20
2023-05-11T16:27:11.386Z,15.10
2023-05-11T16:32:14.315Z,15.10
2023-05-11T16:37:16.292Z,15.10
2023-05-11T16:42:19.279Z,15.10
2023-05-11T16:47:22.089Z,15.10
2023-05-11T16:52:24.701Z,15.00
2023-05-11T16:57:26.753Z,14.80
2023-05-11T17:02:28.848Z,14.50
2023-05-11T17:07:30.939Z,14.50
2023-05-11T17:12:35.536Z,14.40
2023-05-11T17:17:38.101Z,14.50
2023-05-11T17:22:40.066Z,14.40
2023-05-11T17:27:41.908Z,14.30
2023-05-11T17:32:44.091Z,14.30
2023-05-11T17:37:46.209Z,14.40
2023-05-11T17:42:48.095Z,14.50
2023-05-11T17:47:50.663Z,14.50
2023-05-11T17:52:52.545Z,14.50
2023-05-11T17:57:54.289Z,14.50
2023-05-11T18:02:56.169Z,14.60
2023-05-11T18:07:58.187Z,14.50
2023-05-11T18:12:59.938Z,14.40
2023-05-11T18:18:02.271Z,14.40
2023-05-11T18:23:04.575Z,14.40
2023-05-11T18:28:06.437Z,14.40
2023-05-11T18:33:08.451Z,14.40
2023-05-11T18:38:10.435Z,14.40
2023-05-11T18:43:12.658Z,14.40
2023-05-11T18:48:15.801Z,14.40
2023-05-11T18:53:17.680Z,14.40
2023-05-11T18:58:20.524Z,14.30
2023-05-11T19:03:23.854Z,14.20
2023-05-11T19:08:25.878Z,14.20
2023-05-11T19:13:27.880Z,14.20
2023-05-11T19:18:29.752Z,14.20
2023-05-11T19:23:32.226Z,14.20
2023-05-11T19:28:34.228Z,14.20
2023-05-11T19:33:36.144Z,14.20
2023-05-11T19:38:38.192Z,14.10
2023-05-11T19:43:39.970Z,14.10
2023-05-11T19:48:43.124Z,14.10
2023-05-11T19:53:45.005Z,14.10
2023-05-11T19:58:46.858Z,14.10
2023-05-11T20:03:48.907Z,14.10
2023-05-11T20:08:51.692Z,14.00
2023-05-11T20:13:53.865Z,14.10
2023-05-11T20:18:55.836Z,14.10
2023-05-11T20:23:57.684Z,14.10
2023-05-11T20:28:59.678Z,14.00
2023-05-11T20:39:07.058Z,13.90
2023-05-11T20:44:13.686Z,13.80
2023-05-11T20:49:22.139Z,13.80
2023-05-11T20:54:26.942Z,13.80
2023-05-11T21:04:36.113Z,13.80
2023-05-11T21:09:37.929Z,13.70
2023-05-11T21:14:40.192Z,13.80
2023-05-11T21:19:41.930Z,13.80
2023-05-11T21:24:43.750Z,13.80
2023-05-11T21:29:45.514Z,13.60
2023-05-11T21:34:47.447Z,13.60
2023-05-11T21:39:49.227Z,13.60
2023-05-11T21:44:51.514Z,13.50
2023-05-11T21:49:53.271Z,13.50
2023-05-11T21:54:55.050Z,13.50
2023-05-11T21:59:57.053Z,13.50
2023-05-11T22:04:58.820Z,13.50
2023-05-11T22:10:00.566Z,13.50
2023-05-11T22:15:03.828Z,13.60
2023-05-11T22:20:09.916Z,13.50
2023-05-11T22:25:11.858Z,13.60
2023-05-11T22:30:13.997Z,13.50
2023-05-11T22:35:15.995Z,13.60
2023-05-11T22:40:18.574Z,13.50
2023-05-11T22:45:20.783Z,13.60
2023-05-11T22:50:22.706Z,13.60
2023-05-11T22:55:25.192Z,13.50
2023-05-11T23:00:27.535Z,13.50
2023-05-11T23:05:30.004Z,13.50
2023-05-11T23:10:32.189Z,13.50
2023-05-11T23:15:33.973Z,13.50
2023-05-11T23:20:35.857Z,13.50
2023-05-11T23:25:37.660Z,13.60
2023-05-11T23:30:39.432Z,13.50
2023-05-11T23:35:41.362Z,13.50
2023-05-11T23:40:43.186Z,13.60
2023-05-11T23:45:45.399Z,13.50
2023-05-11T23:50:47.420Z,13.50
2023-05-11T23:55:49.264Z,13.50
